Time,TemperatureF,DewpointF,PressureIn,WindDirection,WindDirectionDegrees,WindSpeedMPH,WindSpeedGustMPH,Humidity,HourlyPrecipIn,Conditions,Clouds,dailyrainin,SoftwareType,DateUTC
2013-05-21 00:07:00,76.0,68.6,29.82,East,80,2.0,2.0,78,0.00,,,0.00,Wunderground v.1.15,2013-05-21 05:07:00,
2013-05-21 00:16:00,75.8,68.8,29.81,East,83,1.0,1.0,79,0.00,,,0.00,Wunderground v.1.15,2013-05-21 05:16:00,
2013-05-21 00:27:00,75.6,68.6,29.81,East,99,1.0,1.0,79,0.00,,,0.00,Wunderground v.1.15,2013-05-21 05:27:00,
2013-05-21 00:37:00,75.5,68.9,29.82,ESE,113,2.0,2.0,80,0.00,,,0.00,Wunderground v.1.15,2013-05-21 05:37:00,
2013-05-21 00:47:00,75.5,68.9,29.82,SE,146,1.0,2.0,80,0.00,,,0.00,Wunderground v.1.15,2013-05-21 05:47:00,
2013-05-21 00:57:00,75.5,68.9,29.82,SE,128,1.0,1.0,80,0.00,,,0.00,Wunderground v.1.15,2013-05-21 05:57:00,
2013-05-21 01:07:00,75.3,68.7,29.82,SSE,148,3.0,4.0,80,0.00,,,0.00,Wunderground v.1.15,2013-05-21 06:07:00,
2013-05-21 01:16:00,75.3,68.7,29.81,SSE,150,4.0,4.0,80,0.00,,,0.00,Wunderground v.1.15,2013-05-21 06:16:00,
2013-05-21 01:26:00,75.1,68.5,29.81,SE,144,5.0,5.0,80,0.00,,,0.00,Wunderground v.1.15,2013-05-21 06:26:00,
2013-05-21 01:37:00,75.1,68.9,29.80,SSE,161,5.0,6.0,81,0.00,,,0.00,Wunderground v.1.15,2013-05-21 06:37:00,
2013-05-21 01:46:00,75.1,68.9,29.80,SSE,160,4.0,4.0,81,0.00,,,0.00,Wunderground v.1.15,2013-05-21 06:46:00,
2013-05-21 01:57:00,74.9,68.7,29.80,ESE,119,4.0,4.0,81,0.00,,,0.00,Wunderground v.1.15,2013-05-21 06:57:00,
2013-05-21 02:07:00,74.8,68.9,29.78,SE,142,5.0,6.0,82,0.00,,,0.00,Wunderground v.1.15,2013-05-21 07:07:00,
2013-05-21 02:17:00,74.4,68.5,29.77,SE,127,5.0,6.0,82,0.00,,,0.00,Wunderground v.1.15,2013-05-21 07:17:00,
2013-05-21 02:27:00,74.2,68.3,29.77,SSE,148,5.0,5.0,82,0.00,,,0.00,Wunderground v.1.15,2013-05-21 07:27:00,
2013-05-21 02:37:00,74.1,68.6,29.76,SSE,150,5.0,7.0,83,0.00,,,0.00,Wunderground v.1.15,2013-05-21 07:37:00,
2013-05-21 02:46:00,73.9,68.4,29.75,South,169,5.0,7.0,83,0.00,,,0.00,Wunderground v.1.15,2013-05-21 07:46:00,
2013-05-21 02:56:00,73.7,68.6,29.75,SE,143,6.0,9.0,84,0.00,,,0.00,Wunderground v.1.15,2013-05-21 07:56:00,
2013-05-21 03:07:00,73.7,68.6,29.74,SE,134,5.0,13.0,84,0.00,,,0.00,Wunderground v.1.15,2013-05-21 08:07:00,
2013-05-21 03:17:00,73.9,68.8,29.74,SSE,157,6.0,6.0,84,0.00,,,0.00,Wunderground v.1.15,2013-05-21 08:17:00,
2013-05-21 03:27:00,73.9,68.8,29.74,SSE,157,5.0,5.0,84,0.00,,,0.00,Wunderground v.1.15,2013-05-21 08:27:00,
2013-05-21 03:37:00,74.1,68.6,29.74,SE,145,4.0,5.0,83,0.00,,,0.00,Wunderground v.1.15,2013-05-21 08:37:00,
2013-05-21 03:47:00,74.1,68.6,29.74,SE,138,5.0,5.0,83,0.00,,,0.00,Wunderground v.1.15,2013-05-21 08:47:00,
2013-05-21 03:57:00,74.1,68.6,29.74,SSE,154,5.0,5.0,83,0.00,,,0.00,Wunderground v.1.15,2013-05-21 08:57:00,
2013-05-21 04:07:00,74.1,68.6,29.74,SE,140,5.0,5.0,83,0.00,,,0.00,Wunderground v.1.15,2013-05-21 09:07:00,
2013-05-21 04:16:00,74.1,68.6,29.73,SSE,155,6.0,8.0,83,0.00,,,0.00,Wunderground v.1.15,2013-05-21 09:16:00,
2013-05-21 04:27:00,74.1,69.0,29.73,ESE,117,4.0,4.0,84,0.00,,,0.00,Wunderground v.1.15,2013-05-21 09:27:00,
2013-05-21 04:37:00,74.1,69.0,29.73,SSE,156,7.0,10.0,84,0.00,,,0.00,Wunderground v.1.15,2013-05-21 09:37:00,
2013-05-21 04:47:00,74.1,69.0,29.74,SE,135,7.0,7.0,84,0.00,,,0.00,Wunderground v.1.15,2013-05-21 09:47:00,
2013-05-21 04:57:00,74.1,68.6,29.74,SSE,161,6.0,10.0,83,0.00,,,0.00,Wunderground v.1.15,2013-05-21 09:57:00,
2013-05-21 05:07:00,74.2,68.7,29.74,SE,140,7.0,10.0,83,0.00,,,0.00,Wunderground v.1.15,2013-05-21 10:07:00,
2013-05-21 05:16:00,74.1,68.6,29.74,ESE,118,7.0,8.0,83,0.00,,,0.00,Wunderground v.1.15,2013-05-21 10:16:00,
2013-05-21 05:26:00,74.1,67.5,29.74,SE,135,6.0,6.0,80,0.00,,,0.00,Wunderground v.1.15,2013-05-21 10:26:00,
2013-05-21 05:37:00,74.2,68.3,29.74,SSE,162,6.0,15.0,82,0.00,,,0.00,Wunderground v.1.15,2013-05-21 10:37:00,
2013-05-21 05:46:00,74.2,68.3,29.74,SSE,165,7.0,7.0,82,0.00,,,0.00,Wunderground v.1.15,2013-05-21 10:46:00,
2013-05-21 05:57:00,74.2,68.3,29.74,SE,142,7.0,8.0,82,0.00,,,0.00,Wunderground v.1.15,2013-05-21 10:57:00,
2013-05-21 06:07:00,74.2,68.3,29.74,SE,130,7.0,7.0,82,0.00,,,0.00,Wunderground v.1.15,2013-05-21 11:07:00,
2013-05-21 06:17:00,74.1,68.6,29.75,SE,143,7.0,7.0,83,0.00,,,0.00,Wunderground v.1.15,2013-05-21 11:17:00,
2013-05-21 06:27:00,73.9,68.4,29.75,SSE,157,7.0,7.0,83,0.00,,,0.00,Wunderground v.1.15,2013-05-21 11:27:00,
2013-05-21 06:37:00,74.1,68.6,29.75,SE,144,8.0,8.0,83,0.00,,,0.00,Wunderground v.1.15,2013-05-21 11:37:00,
2013-05-21 06:46:00,74.1,68.6,29.75,SSE,154,8.0,8.0,83,0.00,,,0.00,Wunderground v.1.15,2013-05-21 11:46:00,
2013-05-21 06:56:00,74.1,68.6,29.75,SSE,153,8.0,9.0,83,0.00,,,0.00,Wunderground v.1.15,2013-05-21 11:56:00,
2013-05-21 07:07:00,74.2,68.7,29.75,ESE,121,7.0,7.0,83,0.00,,,0.00,Wunderground v.1.15,2013-05-21 12:07:00,
2013-05-21 07:17:00,74.2,68.7,29.76,SE,134,7.0,7.0,83,0.00,,,0.00,Wunderground v.1.15,2013-05-21 12:17:00,
2013-05-21 07:27:00,74.2,68.7,29.76,ESE,122,7.0,7.0,83,0.00,,,0.00,Wunderground v.1.15,2013-05-21 12:27:00,
2013-05-21 07:37:00,74.4,68.9,29.77,SE,143,7.0,7.0,83,0.00,,,0.00,Wunderground v.1.15,2013-05-21 12:37:00,
2013-05-21 07:47:00,74.6,69.1,29.77,SE,138,7.0,7.0,83,0.00,,,0.00,Wunderground v.1.15,2013-05-21 12:47:00,
2013-05-21 07:57:00,74.9,69.0,29.77,SE,134,7.0,7.0,82,0.00,,,0.00,Wunderground v.1.15,2013-05-21 12:57:00,
2013-05-21 08:07:00,75.1,69.2,29.77,SSE,150,8.0,8.0,82,0.00,,,0.00,Wunderground v.1.15,2013-05-21 13:07:00,
2013-05-21 08:17:00,75.5,69.3,29.77,SE,146,8.0,8.0,81,0.00,,,0.00,Wunderground v.1.15,2013-05-21 13:17:00,
2013-05-21 08:27:00,75.8,69.2,29.77,South,180,8.0,8.0,80,0.00,,,0.00,Wunderground v.1.15,2013-05-21 13:27:00,
2013-05-21 08:37:00,76.0,69.0,29.78,SE,124,8.0,8.0,79,0.00,,,0.00,Wunderground v.1.15,2013-05-21 13:37:00,
2013-05-21 08:47:00,76.0,69.0,29.78,SE,142,6.0,6.0,79,0.00,,,0.00,Wunderground v.1.15,2013-05-21 13:47:00,
2013-05-21 08:57:00,75.8,69.2,29.78,SSE,148,7.0,10.0,80,0.00,,,0.00,Wunderground v.1.15,2013-05-21 13:57:00,
2013-05-21 09:07:00,76.0,69.4,29.79,SE,146,8.0,8.0,80,0.00,,,0.00,Wunderground v.1.15,2013-05-21 14:07:00,
2013-05-21 09:16:00,76.5,69.5,29.79,South,188,10.0,10.0,79,0.00,,,0.00,Wunderground v.1.15,2013-05-21 14:16:00,
2013-05-21 09:26:00,76.7,69.3,29.79,SSE,165,8.0,8.0,78,0.00,,,0.00,Wunderground v.1.15,2013-05-21 14:26:00,
2013-05-21 09:37:00,76.5,69.1,29.79,SSE,147,7.0,8.0,78,0.00,,,0.00,Wunderground v.1.15,2013-05-21 14:37:00,
2013-05-21 09:46:00,77.0,69.2,29.79,South,169,6.0,6.0,77,0.00,,,0.00,Wunderground v.1.15,2013-05-21 14:46:00,
2013-05-21 09:57:00,77.4,68.9,29.79,SSE,159,9.0,9.0,75,0.00,,,0.00,Wunderground v.1.15,2013-05-21 14:57:00,
2013-05-21 10:07:00,77.6,69.0,29.79,SE,138,9.0,9.0,75,0.00,,,0.00,Wunderground v.1.15,2013-05-21 15:07:00,
2013-05-21 10:16:00,78.1,68.7,29.79,SSE,154,10.0,10.0,73,0.00,,,0.00,Wunderground v.1.15,2013-05-21 15:16:00,
2013-05-21 10:27:00,78.8,69.0,29.79,SSE,161,8.0,8.0,72,0.00,,,0.00,Wunderground v.1.15,2013-05-21 15:27:00,
2013-05-21 10:37:00,79.2,69.0,29.79,SE,142,10.0,17.0,71,0.00,,,0.00,Wunderground v.1.15,2013-05-21 15:37:00,
2013-05-21 10:46:00,79.8,69.1,29.79,SSE,158,11.0,11.0,70,0.00,,,0.00,Wunderground v.1.15,2013-05-21 15:46:00,
2013-05-21 10:56:00,80.0,68.9,29.79,SSE,167,11.0,12.0,69,0.00,,,0.00,Wunderground v.1.15,2013-05-21 15:56:00,
2013-05-21 11:07:00,80.7,69.6,29.79,South,173,8.0,8.0,69,0.00,,,0.00,Wunderground v.1.15,2013-05-21 16:07:00,
2013-05-21 11:17:00,80.9,68.9,29.79,ESE,119,10.0,13.0,67,0.00,,,0.00,Wunderground v.1.15,2013-05-21 16:17:00,
2013-05-21 11:27:00,81.1,68.7,29.79,SE,136,10.0,12.0,66,0.00,,,0.00,Wunderground v.1.15,2013-05-21 16:27:00,
2013-05-21 11:37:00,81.8,68.9,29.79,SSE,156,9.0,9.0,65,0.00,,,0.00,Wunderground v.1.15,2013-05-21 16:37:00,
2013-05-21 11:47:00,82.2,68.8,29.79,SE,140,9.0,9.0,64,0.00,,,0.00,Wunderground v.1.15,2013-05-21 16:47:00,
2013-05-21 11:57:00,81.8,68.4,29.79,SSE,149,10.0,11.0,64,0.00,,,0.00,Wunderground v.1.15,2013-05-21 16:57:00,
2013-05-21 12:07:00,82.0,67.7,29.79,SSE,168,10.0,10.0,62,0.00,,,0.00,Wunderground v.1.15,2013-05-21 17:07:00,
2013-05-21 12:17:00,82.0,68.2,29.80,SSW,198,10.0,10.0,63,0.00,,,0.00,Wunderground v.1.15,2013-05-21 17:17:00,
2013-05-21 12:27:00,82.4,68.1,29.80,South,180,11.0,11.0,62,0.00,,,0.00,Wunderground v.1.15,2013-05-21 17:27:00,
2013-05-21 12:37:00,82.6,68.7,29.79,SSE,165,10.0,10.0,63,0.00,,,0.00,Wunderground v.1.15,2013-05-21 17:37:00,
2013-05-21 12:47:00,83.0,68.6,29.79,South,169,9.0,14.0,62,0.00,,,0.00,Wunderground v.1.15,2013-05-21 17:47:00,
2013-05-21 12:57:00,82.8,68.4,29.79,South,182,13.0,13.0,62,0.00,,,0.00,Wunderground v.1.15,2013-05-21 17:57:00,
2013-05-21 13:07:00,83.2,68.8,29.78,South,178,11.0,11.0,62,0.00,,,0.00,Wunderground v.1.15,2013-05-21 18:07:00,
2013-05-21 13:16:00,83.6,69.2,29.77,South,177,11.0,14.0,62,0.00,,,0.00,Wunderground v.1.15,2013-05-21 18:16:00,
2013-05-21 13:27:00,84.3,68.9,29.77,South,185,10.0,10.0,60,0.00,,,0.00,Wunderground v.1.15,2013-05-21 18:27:00,
2013-05-21 13:37:00,84.9,68.5,29.76,SSE,167,11.0,12.0,58,0.00,,,0.00,Wunderground v.1.15,2013-05-21 18:37:00,
2013-05-21 13:46:00,85.5,69.5,29.75,South,175,12.0,12.0,59,0.00,,,0.00,Wunderground v.1.15,2013-05-21 18:46:00,
2013-05-21 13:57:00,86.3,69.3,29.75,South,190,10.0,10.0,57,0.00,,,0.00,Wunderground v.1.15,2013-05-21 18:57:00,
2013-05-21 14:07:00,86.1,69.6,29.75,SSE,155,12.0,12.0,58,0.00,,,0.00,Wunderground v.1.15,2013-05-21 19:07:00,
2013-05-21 14:16:00,85.7,69.2,29.75,SSE,166,10.0,12.0,58,0.00,,,0.00,Wunderground v.1.15,2013-05-21 19:16:00,
2013-05-21 14:27:00,85.5,69.0,29.75,SSE,154,8.0,11.0,58,0.00,,,0.00,Wunderground v.1.15,2013-05-21 19:27:00,
2013-05-21 14:37:00,85.3,68.8,29.75,SSE,165,11.0,12.0,58,0.00,,,0.00,Wunderground v.1.15,2013-05-21 19:37:00,
2013-05-21 14:46:00,85.7,69.2,29.75,SSW,205,10.0,10.0,58,0.00,,,0.00,Wunderground v.1.15,2013-05-21 19:46:00,
2013-05-21 14:56:00,86.1,69.1,29.75,SSE,148,9.0,12.0,57,0.00,,,0.00,Wunderground v.1.15,2013-05-21 19:56:00,
2013-05-21 15:07:00,85.7,69.7,29.74,SSE,153,9.0,9.0,59,0.00,,,0.00,Wunderground v.1.15,2013-05-21 20:07:00,
2013-05-21 15:17:00,85.1,69.2,29.73,South,169,10.0,15.0,59,0.00,,,0.00,Wunderground v.1.15,2013-05-21 20:17:00,
2013-05-21 15:27:00,85.3,68.8,29.73,SE,146,9.0,17.0,58,0.00,,,0.00,Wunderground v.1.15,2013-05-21 20:27:00,
2013-05-21 15:37:00,85.1,68.7,29.73,South,180,8.0,8.0,58,0.00,,,0.00,Wunderground v.1.15,2013-05-21 20:37:00,
2013-05-21 15:47:00,84.9,69.0,29.72,SSW,194,8.0,8.0,59,0.00,,,0.00,Wunderground v.1.15,2013-05-21 20:47:00,
2013-05-21 15:57:00,84.9,68.5,29.72,SSE,168,9.0,9.0,58,0.00,,,0.00,Wunderground v.1.15,2013-05-21 20:57:00,
2013-05-21 16:07:00,84.5,68.6,29.72,South,181,7.0,7.0,59,0.00,,,0.00,Wunderground v.1.15,2013-05-21 21:07:00,
2013-05-21 16:17:00,84.5,68.1,29.71,SSE,164,7.0,10.0,58,0.00,,,0.00,Wunderground v.1.15,2013-05-21 21:17:00,
2013-05-21 16:27:00,84.5,68.6,29.71,South,186,8.0,10.0,59,0.00,,,0.00,Wunderground v.1.15,2013-05-21 21:27:00,
2013-05-21 16:37:00,84.3,68.4,29.71,SSW,199,7.0,7.0,59,0.00,,,0.00,Wunderground v.1.15,2013-05-21 21:37:00,
2013-05-21 16:47:00,84.2,68.8,29.70,SW,220,4.0,4.0,60,0.00,,,0.00,Wunderground v.1.15,2013-05-21 21:47:00,
2013-05-21 16:57:00,84.0,69.1,29.70,SW,216,3.0,4.0,61,0.00,,,0.00,Wunderground v.1.15,2013-05-21 21:57:00,
2013-05-21 17:07:00,83.8,69.4,29.71,SW,216,1.0,1.0,62,0.00,,,0.00,Wunderground v.1.15,2013-05-21 22:07:00,
2013-05-21 17:16:00,83.4,69.0,29.71,SW,226,2.0,4.0,62,0.00,,,0.00,Wunderground v.1.15,2013-05-21 22:16:00,
2013-05-21 17:26:00,83.4,69.0,29.71,SW,223,3.0,5.0,62,0.00,,,0.00,Wunderground v.1.15,2013-05-21 22:26:00,
2013-05-21 17:37:00,83.2,69.3,29.71,SW,217,6.0,6.0,63,0.00,,,0.00,Wunderground v.1.15,2013-05-21 22:37:00,
2013-05-21 17:46:00,81.6,70.9,29.72,West,272,3.0,3.0,70,0.00,,,0.00,Wunderground v.1.15,2013-05-21 22:46:00,
2013-05-21 17:57:00,79.0,71.9,29.72,West,273,3.0,3.0,79,0.09,,,0.02,Wunderground v.1.15,2013-05-21 22:57:00,
2013-05-21 18:07:00,78.8,72.5,29.71,SSW,204,3.0,5.0,81,0.11,,,0.05,Wunderground v.1.15,2013-05-21 23:07:00,
2013-05-21 18:16:00,79.8,73.8,29.71,SSW,204,2.0,2.0,82,0.04,,,0.05,Wunderground v.1.15,2013-05-21 23:16:00,
2013-05-21 18:27:00,80.0,74.0,29.71,SSW,204,0.0,0.0,82,0.00,,,0.05,Wunderground v.1.15,2013-05-21 23:27:00,
2013-05-21 18:37:00,80.7,74.7,29.71,SSW,204,0.0,0.0,82,0.00,,,0.05,Wunderground v.1.15,2013-05-21 23:37:00,
2013-05-21 18:46:00,81.1,74.7,29.71,SSW,204,0.0,0.0,81,0.00,,,0.05,Wunderground v.1.15,2013-05-21 23:46:00,
2013-05-21 18:56:00,80.9,75.2,29.71,NNW,335,1.0,11.0,83,0.00,,,0.05,Wunderground v.1.15,2013-05-21 23:56:00,
2013-05-21 19:07:00,73.0,65.7,29.74,NNW,339,7.0,7.0,78,0.00,,,0.05,Wunderground v.1.15,2013-05-22 00:07:00,
2013-05-21 19:17:00,71.3,65.2,29.76,NW,325,5.0,5.0,81,0.00,,,0.05,Wunderground v.1.15,2013-05-22 00:17:00,
2013-05-21 19:27:00,70.8,65.0,29.76,NNW,329,5.0,5.0,82,0.00,,,0.05,Wunderground v.1.15,2013-05-22 00:27:00,
2013-05-21 19:37:00,70.6,64.8,29.77,NW,311,3.0,6.0,82,0.00,,,0.05,Wunderground v.1.15,2013-05-22 00:37:00,
2013-05-21 19:47:00,70.6,64.5,29.77,NNW,346,3.0,3.0,81,0.00,,,0.05,Wunderground v.1.15,2013-05-22 00:47:00,
2013-05-21 19:57:00,70.3,63.8,29.77,NNW,338,4.0,4.0,80,0.00,,,0.05,Wunderground v.1.15,2013-05-22 00:57:00,
2013-05-21 20:07:00,70.3,63.8,29.78,NNW,346,4.0,6.0,80,0.00,,,0.05,Wunderground v.1.15,2013-05-22 01:07:00,
2013-05-21 20:17:00,70.1,63.6,29.79,NNW,340,4.0,4.0,80,0.00,,,0.05,Wunderground v.1.15,2013-05-22 01:17:00,
2013-05-21 20:26:00,70.0,63.5,29.79,NNW,345,3.0,3.0,80,0.00,,,0.05,Wunderground v.1.15,2013-05-22 01:26:00,
2013-05-21 20:37:00,69.6,62.4,29.80,NNW,330,4.0,4.0,78,0.00,,,0.05,Wunderground v.1.15,2013-05-22 01:37:00,
2013-05-21 20:47:00,69.8,61.1,29.81,NNW,331,5.0,5.0,74,0.00,,,0.05,Wunderground v.1.15,2013-05-22 01:47:00,
2013-05-21 20:57:00,69.6,60.6,29.81,NNW,344,5.0,7.0,73,0.00,,,0.05,Wunderground v.1.15,2013-05-22 01:57:00,
2013-05-21 21:07:00,69.3,59.5,29.83,NNW,333,4.0,4.0,71,0.00,,,0.05,Wunderground v.1.15,2013-05-22 02:07:00,
2013-05-21 21:16:00,69.1,58.9,29.83,NNW,342,3.0,8.0,70,0.00,,,0.05,Wunderground v.1.15,2013-05-22 02:16:00,
2013-05-21 21:26:00,69.1,58.9,29.83,NNW,344,3.0,3.0,70,0.00,,,0.05,Wunderground v.1.15,2013-05-22 02:26:00,
2013-05-21 21:37:00,69.0,58.8,29.84,NNW,344,2.0,2.0,70,0.00,,,0.05,Wunderground v.1.15,2013-05-22 02:37:00,
2013-05-21 21:46:00,68.6,58.4,29.84,NNW,344,1.0,4.0,70,0.00,,,0.05,Wunderground v.1.15,2013-05-22 02:46:00,
2013-05-21 21:57:00,68.6,58.4,29.84,NNW,344,2.0,2.0,70,0.00,,,0.05,Wunderground v.1.15,2013-05-22 02:57:00,
2013-05-21 22:07:00,68.6,58.4,29.85,NNW,344,1.0,1.0,70,0.00,,,0.05,Wunderground v.1.15,2013-05-22 03:07:00,
2013-05-21 22:16:00,68.8,58.6,29.85,NNW,344,1.0,1.0,70,0.00,,,0.05,Wunderground v.1.15,2013-05-22 03:16:00,
2013-05-21 22:26:00,69.0,58.4,29.85,NNW,344,2.0,2.0,69,0.00,,,0.05,Wunderground v.1.15,2013-05-22 03:26:00,
2013-05-21 22:37:00,69.0,58.4,29.86,NNW,344,1.0,1.0,69,0.00,,,0.05,Wunderground v.1.15,2013-05-22 03:37:00,
2013-05-21 22:46:00,69.0,58.4,29.87,NNW,344,1.0,1.0,69,0.00,,,0.05,Wunderground v.1.15,2013-05-22 03:46:00,
2013-05-21 22:56:00,69.0,58.4,29.87,NNW,344,1.0,1.0,69,0.00,,,0.05,Wunderground v.1.15,2013-05-22 03:56:00,
2013-05-21 23:07:00,69.0,58.4,29.88,NNW,344,1.0,1.0,69,0.00,,,0.05,Wunderground v.1.15,2013-05-22 04:07:00,
2013-05-21 23:17:00,68.8,58.2,29.88,NNW,344,1.0,1.0,69,0.00,,,0.05,Wunderground v.1.15,2013-05-22 04:17:00,
2013-05-21 23:27:00,68.6,58.0,29.88,NNW,344,0.0,0.0,69,0.00,,,0.05,Wunderground v.1.15,2013-05-22 04:27:00,
2013-05-21 23:37:00,68.3,58.1,29.89,NNW,344,0.0,2.0,70,0.00,,,0.05,Wunderground v.1.15,2013-05-22 04:37:00,
2013-05-21 23:46:00,68.1,57.9,29.89,NNW,344,1.0,1.0,70,0.00,,,0.05,Wunderground v.1.15,2013-05-22 04:46:00,
2013-05-21 23:56:00,67.8,57.7,29.89,NNW,344,0.0,0.0,70,0.00,,,0.05,Wunderground v.1.15,2013-05-22 04:56:00,